createdAt,value
2023-04-27T00:00:31.247Z,664.00
2023-04-27T00:01:31.228Z,665.00
2023-04-27T00:02:31.320Z,661.00
2023-04-27T00:03:31.402Z,666.00
2023-04-27T00:04:31.363Z,662.00
2023-04-27T00:05:31.316Z,665.00
2023-04-27T00:06:31.233Z,654.00
2023-04-27T00:07:31.251Z,658.00
2023-04-27T00:08:31.241Z,663.00
2023-04-27T00:09:31.249Z,655.00
2023-04-27T00:10:31.234Z,659.00
2023-04-27T00:11:31.257Z,654.00
2023-04-27T00:12:31.279Z,655.00
2023-04-27T00:13:31.293Z,666.00
2023-04-27T00:14:31.305Z,663.00
2023-04-27T00:15:31.285Z,659.00
2023-04-27T00:16:31.336Z,660.00
2023-04-27T00:17:31.345Z,655.00
2023-04-27T00:18:31.325Z,657.00
2023-04-27T00:19:31.354Z,651.00
2023-04-27T00:20:31.318Z,656.00
2023-04-27T00:21:31.328Z,663.00
2023-04-27T00:22:31.330Z,657.00
2023-04-27T00:23:31.350Z,653.00
2023-04-27T00:24:31.321Z,653.00
2023-04-27T00:25:31.332Z,648.00
2023-04-27T00:26:31.318Z,649.00
2023-04-27T00:27:31.336Z,645.00
2023-04-27T00:28:31.360Z,655.00
2023-04-27T00:29:31.333Z,658.00
2023-04-27T00:30:31.353Z,653.00
2023-04-27T00:31:31.370Z,656.00
2023-04-27T00:32:31.385Z,653.00
2023-04-27T00:33:31.359Z,655.00
2023-04-27T00:34:31.971Z,651.00
2023-04-27T00:35:31.358Z,651.00
2023-04-27T00:36:31.370Z,648.00
2023-04-27T00:37:31.348Z,650.00
2023-04-27T00:38:31.351Z,646.00
2023-04-27T00:39:31.352Z,655.00
2023-04-27T00:40:31.382Z,644.00
2023-04-27T00:41:31.363Z,652.00
2023-04-27T00:42:31.355Z,650.00
2023-04-27T00:43:31.369Z,650.00
2023-04-27T00:44:31.364Z,651.00
2023-04-27T00:45:31.475Z,649.00
2023-04-27T00:46:31.499Z,651.00
2023-04-27T00:47:31.452Z,647.00
2023-04-27T00:48:31.399Z,647.00
2023-04-27T00:49:31.419Z,649.00
2023-04-27T00:50:31.398Z,643.00
2023-04-27T00:51:31.396Z,652.00
2023-04-27T00:52:31.401Z,641.00
2023-04-27T00:53:31.351Z,648.00
2023-04-27T00:54:31.385Z,648.00
2023-04-27T00:55:31.405Z,639.00
2023-04-27T00:56:31.384Z,642.00
2023-04-27T00:57:31.384Z,645.00
2023-04-27T00:58:31.380Z,648.00
2023-04-27T00:59:31.413Z,645.00
2023-04-27T01:00:31.417Z,643.00
2023-04-27T01:01:31.499Z,645.00
2023-04-27T01:02:31.546Z,641.00
2023-04-27T01:03:31.580Z,637.00
2023-04-27T01:04:31.624Z,640.00
2023-04-27T01:05:32.677Z,642.00
2023-04-27T01:06:31.446Z,643.00
2023-04-27T01:07:31.503Z,643.00
2023-04-27T01:08:31.477Z,642.00
2023-04-27T01:09:31.467Z,643.00
2023-04-27T01:10:31.474Z,642.00
2023-04-27T01:11:31.480Z,642.00
2023-04-27T01:12:31.464Z,639.00
2023-04-27T01:13:31.492Z,639.00
2023-04-27T01:14:31.519Z,642.00
2023-04-27T01:15:31.516Z,641.00
2023-04-27T01:16:31.548Z,638.00
2023-04-27T01:17:31.565Z,643.00
2023-04-27T01:18:31.552Z,631.00
2023-04-27T01:19:31.549Z,639.00
2023-04-27T01:20:31.572Z,647.00
2023-04-27T01:21:31.560Z,638.00
2023-04-27T01:22:31.554Z,628.00
2023-04-27T01:23:31.573Z,635.00
2023-04-27T01:24:31.548Z,634.00
2023-04-27T01:25:31.566Z,636.00
2023-04-27T01:26:31.566Z,636.00
2023-04-27T01:27:31.530Z,633.00
2023-04-27T01:28:31.523Z,628.00
2023-04-27T01:29:31.559Z,630.00
2023-04-27T01:30:31.577Z,636.00
2023-04-27T01:31:31.574Z,630.00
2023-04-27T01:32:31.608Z,636.00
2023-04-27T01:33:31.533Z,633.00
2023-04-27T01:34:31.548Z,632.00
2023-04-27T01:35:31.572Z,635.00
2023-04-27T01:36:31.544Z,636.00
2023-04-27T01:37:31.525Z,635.00
2023-04-27T01:38:31.532Z,627.00
2023-04-27T01:39:31.528Z,627.00
2023-04-27T01:40:31.557Z,626.00
2023-04-27T01:41:31.538Z,634.00
2023-04-27T01:42:31.534Z,633.00
2023-04-27T01:43:31.575Z,629.00
2023-04-27T01:44:31.566Z,629.00
2023-04-27T01:45:31.640Z,631.00
2023-04-27T01:46:31.564Z,628.00
2023-04-27T01:47:31.580Z,621.00
2023-04-27T01:48:31.579Z,629.00
2023-04-27T01:49:33.482Z,621.00
2023-04-27T01:50:31.578Z,629.00
2023-04-27T01:51:31.558Z,632.00
2023-04-27T01:52:31.575Z,626.00
2023-04-27T01:53:31.593Z,627.00
2023-04-27T01:54:31.561Z,628.00
2023-04-27T01:55:31.554Z,624.00
2023-04-27T01:56:31.581Z,627.00
2023-04-27T01:57:31.551Z,622.00
2023-04-27T01:58:31.590Z,620.00
2023-04-27T01:59:31.616Z,623.00
2023-04-27T02:00:31.604Z,627.00
2023-04-27T02:01:31.662Z,625.00
2023-04-27T02:02:31.749Z,620.00
2023-04-27T02:03:31.693Z,625.00
2023-04-27T02:04:31.744Z,628.00
2023-04-27T02:05:31.607Z,621.00
2023-04-27T02:06:31.627Z,621.00
2023-04-27T02:07:31.605Z,625.00
2023-04-27T02:08:31.620Z,624.00
2023-04-27T02:09:31.652Z,621.00
2023-04-27T02:10:31.656Z,615.00
2023-04-27T02:11:31.636Z,619.00
2023-04-27T02:12:31.634Z,620.00
2023-04-27T02:13:31.665Z,610.00
2023-04-27T02:14:31.671Z,620.00
2023-04-27T02:15:31.666Z,619.00
2023-04-27T02:16:31.667Z,620.00
2023-04-27T02:17:31.677Z,618.00
2023-04-27T02:18:31.646Z,616.00
2023-04-27T02:19:31.669Z,620.00
2023-04-27T02:20:31.639Z,611.00
2023-04-27T02:21:31.628Z,617.00
2023-04-27T02:22:31.632Z,611.00
2023-04-27T02:23:31.627Z,620.00
2023-04-27T02:24:31.620Z,604.00
2023-04-27T02:25:31.625Z,607.00
2023-04-27T02:26:31.660Z,615.00
2023-04-27T02:27:31.705Z,618.00
2023-04-27T02:28:31.640Z,615.00
2023-04-27T02:29:31.666Z,612.00
2023-04-27T02:30:31.653Z,617.00
2023-04-27T02:31:31.652Z,610.00
2023-04-27T02:32:31.676Z,611.00
2023-04-27T02:33:31.650Z,612.00
2023-04-27T02:34:31.654Z,617.00
2023-04-27T02:35:31.672Z,613.00
2023-04-27T02:36:31.681Z,614.00
2023-04-27T02:37:31.681Z,613.00
2023-04-27T02:38:31.628Z,611.00
2023-04-27T02:39:31.630Z,612.00
2023-04-27T02:40:31.697Z,617.00
2023-04-27T02:41:31.669Z,610.00
2023-04-27T02:42:31.692Z,603.00
2023-04-27T02:43:31.674Z,608.00
2023-04-27T02:44:32.491Z,605.00
2023-04-27T02:45:31.713Z,594.00
2023-04-27T02:46:31.759Z,606.00
2023-04-27T02:47:31.786Z,610.00
2023-04-27T02:48:31.701Z,601.00
2023-04-27T02:49:31.755Z,602.00
2023-04-27T02:50:31.774Z,609.00
2023-04-27T02:51:32.747Z,599.00
2023-04-27T02:52:31.731Z,604.00
2023-04-27T02:53:31.738Z,604.00
2023-04-27T02:54:31.751Z,609.00
2023-04-27T02:55:31.746Z,602.00
2023-04-27T02:56:31.739Z,606.00
2023-04-27T02:57:31.750Z,605.00
2023-04-27T02:58:31.724Z,604.00
2023-04-27T02:59:31.808Z,605.00
2023-04-27T03:00:31.752Z,605.00
2023-04-27T03:01:31.797Z,603.00
2023-04-27T03:02:31.819Z,607.00
2023-04-27T03:03:31.884Z,603.00
2023-04-27T03:04:31.849Z,606.00
2023-04-27T03:05:31.974Z,602.00
2023-04-27T03:06:31.769Z,605.00
2023-04-27T03:07:31.801Z,604.00
2023-04-27T03:08:31.809Z,602.00
2023-04-27T03:09:31.795Z,600.00
2023-04-27T03:10:31.796Z,605.00
2023-04-27T03:11:31.799Z,599.00
2023-04-27T03:12:31.796Z,603.00
2023-04-27T03:13:31.782Z,600.00
2023-04-27T03:14:31.821Z,603.00
2023-04-27T03:15:31.838Z,602.00
2023-04-27T03:16:31.857Z,601.00
2023-04-27T03:17:31.933Z,605.00
2023-04-27T03:18:31.845Z,602.00
2023-04-27T03:19:31.863Z,601.00
2023-04-27T03:20:31.835Z,599.00
2023-04-27T03:21:31.888Z,600.00
2023-04-27T03:22:31.856Z,598.00
2023-04-27T03:23:31.839Z,595.00
2023-04-27T03:24:31.859Z,599.00
2023-04-27T03:25:31.931Z,601.00
2023-04-27T03:26:31.901Z,596.00
2023-04-27T03:27:31.889Z,601.00
2023-04-27T03:28:31.863Z,600.00
2023-04-27T03:29:31.878Z,603.00
2023-04-27T03:30:31.894Z,595.00
2023-04-27T03:31:31.990Z,586.00
2023-04-27T03:32:31.971Z,601.00
2023-04-27T03:33:31.922Z,590.00
2023-04-27T03:34:31.934Z,597.00
2023-04-27T03:35:31.954Z,598.00
2023-04-27T03:36:31.970Z,600.00
2023-04-27T03:37:31.939Z,597.00
2023-04-27T03:38:31.961Z,592.00
2023-04-27T03:39:31.966Z,597.00
2023-04-27T03:40:31.974Z,594.00
2023-04-27T03:41:31.962Z,595.00
2023-04-27T03:42:31.992Z,594.00
2023-04-27T03:43:31.980Z,597.00
2023-04-27T03:44:31.998Z,589.00
2023-04-27T03:45:31.991Z,594.00
2023-04-27T03:46:32.055Z,594.00
2023-04-27T03:47:32.008Z,595.00
2023-04-27T03:48:32.046Z,594.00
2023-04-27T03:49:32.002Z,592.00
2023-04-27T03:50:32.021Z,592.00
2023-04-27T03:51:33.032Z,593.00
2023-04-27T03:52:32.036Z,594.00
2023-04-27T03:53:32.043Z,590.00
2023-04-27T03:54:32.030Z,589.00
2023-04-27T03:55:32.027Z,585.00
2023-04-27T03:56:32.003Z,590.00
2023-04-27T03:57:32.049Z,588.00
2023-04-27T03:58:32.071Z,591.00
2023-04-27T03:59:32.077Z,587.00
2023-04-27T04:00:32.057Z,590.00
2023-04-27T04:01:32.074Z,592.00
2023-04-27T04:02:32.186Z,593.00
2023-04-27T04:03:32.190Z,591.00
2023-04-27T04:04:32.270Z,590.00
2023-04-27T04:05:32.098Z,590.00
2023-04-27T04:06:32.129Z,587.00
2023-04-27T04:07:32.124Z,588.00
2023-04-27T04:08:32.158Z,587.00
2023-04-27T04:09:32.135Z,591.00
2023-04-27T04:10:32.143Z,581.00
2023-04-27T04:11:32.146Z,590.00
2023-04-27T04:12:32.148Z,590.00
2023-04-27T04:13:32.142Z,587.00
2023-04-27T04:14:32.124Z,589.00
2023-04-27T04:15:32.167Z,589.00
2023-04-27T04:16:32.174Z,589.00
2023-04-27T04:17:32.198Z,589.00
2023-04-27T04:18:32.179Z,589.00
2023-04-27T04:19:32.135Z,584.00
2023-04-27T04:20:32.157Z,584.00
2023-04-27T04:21:32.198Z,586.00
2023-04-27T04:22:32.188Z,587.00
2023-04-27T04:23:32.200Z,585.00
2023-04-27T04:24:32.195Z,582.00
2023-04-27T04:25:32.205Z,584.00
2023-04-27T04:26:32.218Z,586.00
2023-04-27T04:27:32.209Z,588.00
2023-04-27T04:28:32.223Z,587.00
2023-04-27T04:29:32.227Z,586.00
2023-04-27T04:30:32.235Z,581.00
2023-04-27T04:31:32.245Z,586.00
2023-04-27T04:32:32.226Z,582.00
2023-04-27T04:33:32.228Z,585.00
2023-04-27T04:34:32.193Z,586.00
2023-04-27T04:35:32.200Z,583.00
2023-04-27T04:36:32.222Z,576.00
2023-04-27T04:37:32.198Z,586.00
2023-04-27T04:38:32.239Z,581.00
2023-04-27T04:39:32.232Z,585.00
2023-04-27T04:40:32.249Z,581.00
2023-04-27T04:41:32.332Z,584.00
2023-04-27T04:42:32.221Z,582.00
2023-04-27T04:43:32.216Z,581.00
2023-04-27T04:44:32.273Z,582.00
2023-04-27T04:45:32.278Z,582.00
2023-04-27T04:46:32.315Z,574.00
2023-04-27T04:47:32.412Z,581.00
2023-04-27T04:48:32.379Z,586.00
2023-04-27T04:49:32.301Z,571.00
2023-04-27T04:50:32.343Z,581.00
2023-04-27T04:51:32.355Z,586.00
2023-04-27T04:52:34.056Z,584.00
2023-04-27T04:53:32.334Z,583.00
2023-04-27T04:54:32.363Z,575.00
2023-04-27T04:55:32.365Z,579.00
2023-04-27T04:56:32.390Z,576.00
2023-04-27T04:57:32.379Z,579.00
2023-04-27T04:58:32.374Z,579.00
2023-04-27T04:59:32.398Z,579.00
2023-04-27T05:00:32.372Z,581.00
2023-04-27T05:01:32.432Z,581.00
2023-04-27T05:02:32.499Z,578.00
2023-04-27T05:03:32.739Z,577.00
2023-04-27T05:04:32.592Z,584.00
2023-04-27T05:05:32.430Z,580.00
2023-04-27T05:06:32.425Z,581.00
2023-04-27T05:07:32.433Z,575.00
2023-04-27T05:08:32.447Z,582.00
2023-04-27T05:09:32.436Z,579.00
2023-04-27T05:10:32.466Z,582.00
2023-04-27T05:11:32.454Z,583.00
2023-04-27T05:12:32.451Z,577.00
2023-04-27T05:13:32.465Z,571.00
2023-04-27T05:14:32.464Z,577.00
2023-04-27T05:15:32.432Z,579.00
2023-04-27T05:16:32.500Z,578.00
2023-04-27T05:17:32.481Z,574.00
2023-04-27T05:18:32.464Z,575.00
2023-04-27T05:19:32.495Z,575.00
2023-04-27T05:20:32.477Z,577.00
2023-04-27T05:21:32.463Z,574.00
2023-04-27T05:22:32.477Z,580.00
2023-04-27T05:23:32.468Z,579.00
2023-04-27T05:24:32.475Z,574.00
2023-04-27T05:25:32.513Z,576.00
2023-04-27T05:26:32.471Z,576.00
2023-04-27T05:27:32.510Z,574.00
2023-04-27T05:28:32.465Z,578.00
2023-04-27T05:29:32.516Z,576.00
2023-04-27T05:30:32.461Z,574.00
2023-04-27T05:31:32.542Z,576.00
2023-04-27T05:32:32.507Z,580.00
2023-04-27T05:33:32.492Z,574.00
2023-04-27T05:34:32.497Z,577.00
2023-04-27T05:35:32.519Z,574.00
2023-04-27T05:36:32.516Z,576.00
2023-04-27T05:37:32.549Z,577.00
2023-04-27T05:38:32.491Z,575.00
2023-04-27T05:39:32.534Z,576.00
2023-04-27T05:40:32.524Z,576.00
2023-04-27T05:41:32.551Z,572.00
2023-04-27T05:42:33.061Z,566.00
2023-04-27T05:43:32.544Z,577.00
2023-04-27T05:44:32.585Z,576.00
2023-04-27T05:45:32.624Z,576.00
2023-04-27T05:46:32.608Z,576.00
2023-04-27T05:47:32.672Z,574.00
2023-04-27T05:48:32.636Z,575.00
2023-04-27T05:49:32.610Z,576.00
2023-04-27T05:50:32.673Z,577.00
2023-04-27T05:51:32.691Z,565.00
2023-04-27T05:52:33.046Z,572.00
2023-04-27T05:53:32.688Z,575.00
2023-04-27T05:54:32.822Z,573.00
2023-04-27T05:55:32.758Z,573.00
2023-04-27T05:56:32.755Z,576.00
2023-04-27T05:57:33.055Z,597.00
2023-04-27T05:58:32.800Z,609.00
2023-04-27T05:59:32.800Z,616.00
2023-04-27T06:00:32.803Z,622.00
2023-04-27T06:01:32.797Z,622.00
2023-04-27T06:02:32.975Z,640.00
2023-04-27T06:03:32.939Z,637.00
2023-04-27T06:04:32.908Z,672.00
2023-04-27T06:05:32.991Z,695.00
2023-04-27T06:06:33.008Z,738.00
2023-04-27T06:07:33.088Z,742.00
2023-04-27T06:08:33.100Z,771.00
2023-04-27T06:09:33.156Z,789.00
2023-04-27T06:10:33.226Z,778.00
2023-04-27T06:11:33.282Z,793.00
2023-04-27T06:12:33.341Z,818.00
2023-04-27T06:13:33.396Z,819.00
2023-04-27T06:14:33.480Z,855.00
2023-04-27T06:15:33.548Z,868.00
2023-04-27T06:16:33.574Z,857.00
2023-04-27T06:17:33.614Z,906.00
2023-04-27T06:18:33.624Z,902.00
2023-04-27T06:19:33.665Z,914.00
2023-04-27T06:20:33.713Z,975.00
2023-04-27T06:21:33.759Z,1036.00
2023-04-27T06:22:33.788Z,1058.00
2023-04-27T06:23:33.824Z,1077.00
2023-04-27T06:24:33.878Z,1100.00
2023-04-27T06:25:33.909Z,1117.00
2023-04-27T06:26:33.937Z,1166.00
2023-04-27T06:27:33.933Z,1188.00
2023-04-27T06:28:33.933Z,1220.00
2023-04-27T06:29:33.981Z,1242.00
2023-04-27T06:30:34.034Z,1260.00
2023-04-27T06:31:34.013Z,1286.00
2023-04-27T06:32:34.044Z,1298.00
2023-04-27T06:33:34.040Z,1322.00
2023-04-27T06:34:34.051Z,1308.00
2023-04-27T06:35:34.104Z,1293.00
2023-04-27T06:36:34.113Z,1297.00
2023-04-27T06:37:34.566Z,1306.00
2023-04-27T06:38:34.193Z,1305.00
2023-04-27T06:39:34.239Z,1303.00
2023-04-27T06:40:34.288Z,1285.00
2023-04-27T06:41:34.274Z,1298.00
2023-04-27T06:42:34.446Z,1292.00
2023-04-27T06:43:34.375Z,1293.00
2023-04-27T06:44:34.433Z,1259.00
2023-04-27T06:45:34.445Z,1309.00
2023-04-27T06:46:34.595Z,1287.00
2023-04-27T06:47:34.562Z,1271.00
2023-04-27T06:48:34.584Z,1263.00
2023-04-27T06:49:34.664Z,1252.00
2023-04-27T06:50:34.685Z,1277.00
2023-04-27T06:51:34.755Z,1248.00
2023-04-27T06:52:44.120Z,1233.00
2023-04-27T06:53:34.801Z,1236.00
2023-04-27T06:54:35.016Z,1238.00
2023-04-27T06:55:34.757Z,1242.00
2023-04-27T06:56:34.744Z,1236.00
2023-04-27T06:57:34.757Z,1222.00
2023-04-27T06:58:34.747Z,1185.00
2023-04-27T06:59:34.711Z,1172.00
2023-04-27T07:00:34.722Z,1148.00
2023-04-27T07:01:34.752Z,1161.00
2023-04-27T07:02:34.760Z,1170.00
2023-04-27T07:03:34.805Z,1170.00
2023-04-27T07:04:34.726Z,1224.00
2023-04-27T07:05:34.678Z,1197.00
2023-04-27T07:06:34.665Z,1171.00
2023-04-27T07:07:34.656Z,1203.00
2023-04-27T07:08:35.177Z,1181.00
2023-04-27T07:09:34.656Z,1189.00
2023-04-27T07:10:34.669Z,1204.00
2023-04-27T07:11:34.641Z,1207.00
2023-04-27T07:12:34.663Z,1212.00
2023-04-27T07:13:35.325Z,1211.00
2023-04-27T07:14:34.626Z,1192.00
2023-04-27T07:15:34.630Z,1203.00
2023-04-27T07:16:34.734Z,1239.00
2023-04-27T07:17:34.630Z,1201.00
2023-04-27T07:18:34.588Z,1207.00
2023-04-27T07:19:34.612Z,1212.00
2023-04-27T07:20:34.560Z,1180.00
2023-04-27T07:21:34.549Z,1191.00
2023-04-27T07:22:34.584Z,1203.00
2023-04-27T07:23:34.607Z,1204.00
2023-04-27T07:24:34.553Z,1234.00
2023-04-27T07:25:34.547Z,1245.00
2023-04-27T07:26:34.562Z,1253.00
2023-04-27T07:27:34.524Z,1227.00
2023-04-27T07:28:34.593Z,1217.00
2023-04-27T07:29:34.653Z,1240.00
2023-04-27T07:30:34.510Z,1236.00
2023-04-27T07:31:34.527Z,1265.00
2023-04-27T07:32:34.526Z,1291.00
2023-04-27T07:33:34.491Z,1286.00
2023-04-27T07:34:49.006Z,1303.00
2023-04-27T07:35:35.507Z,1304.00
2023-04-27T07:36:34.481Z,1304.00
2023-04-27T07:37:34.496Z,1297.00
2023-04-27T07:38:34.461Z,1127.00
2023-04-27T07:39:34.495Z,1194.00
2023-04-27T07:40:34.488Z,1094.00
2023-04-27T07:41:34.483Z,1173.00
2023-04-27T07:42:34.433Z,1199.00
2023-04-27T07:43:34.593Z,1199.00
2023-04-27T07:44:34.425Z,1234.00
2023-04-27T07:45:34.443Z,1209.00
2023-04-27T07:46:34.395Z,1255.00
2023-04-27T07:47:34.561Z,1265.00
2023-04-27T07:48:34.402Z,1267.00
2023-04-27T07:49:34.387Z,1287.00
2023-04-27T07:50:34.427Z,1269.00
2023-04-27T07:51:34.531Z,1262.00
2023-04-27T07:52:34.480Z,1254.00
2023-04-27T07:53:34.558Z,1232.00
2023-04-27T07:54:34.542Z,1264.00
2023-04-27T07:55:34.567Z,1244.00
2023-04-27T07:56:34.617Z,1211.00
2023-04-27T07:57:34.688Z,1213.00
2023-04-27T07:58:34.778Z,1226.00
2023-04-27T07:59:34.833Z,1196.00
2023-04-27T08:00:34.878Z,1211.00
2023-04-27T08:01:35.063Z,1200.00
2023-04-27T08:02:35.182Z,1221.00
2023-04-27T08:03:35.329Z,1218.00
2023-04-27T08:04:35.380Z,1207.00
2023-04-27T08:05:35.368Z,1211.00
2023-04-27T08:06:35.991Z,1214.00
2023-04-27T08:07:38.385Z,1190.00
2023-04-27T08:08:36.626Z,1192.00
2023-04-27T08:09:35.300Z,1193.00
2023-04-27T08:10:35.281Z,1188.00
2023-04-27T08:11:35.285Z,1189.00
2023-04-27T08:12:35.316Z,1181.00
2023-04-27T08:13:35.644Z,1200.00
2023-04-27T08:14:35.267Z,1182.00
2023-04-27T08:15:35.287Z,1177.00
2023-04-27T08:16:35.252Z,1170.00
2023-04-27T08:17:35.332Z,1168.00
2023-04-27T08:18:35.370Z,1194.00
2023-04-27T08:19:35.410Z,1173.00
2023-04-27T08:20:35.451Z,1172.00
2023-04-27T08:21:35.520Z,1157.00
2023-04-27T08:22:35.674Z,1172.00
2023-04-27T08:23:36.139Z,1159.00
2023-04-27T08:24:35.720Z,1149.00
2023-04-27T08:25:35.768Z,1151.00
2023-04-27T08:26:35.828Z,1150.00
2023-04-27T08:27:35.859Z,1148.00
2023-04-27T08:28:35.936Z,1124.00
2023-04-27T08:29:35.980Z,1149.00
2023-04-27T08:30:36.068Z,1160.00
2023-04-27T08:31:36.118Z,1134.00
2023-04-27T08:32:36.218Z,1141.00
2023-04-27T08:33:36.625Z,1136.00
2023-04-27T08:34:36.297Z,1110.00
2023-04-27T08:35:36.302Z,1142.00
2023-04-27T08:36:36.376Z,1086.00
2023-04-27T08:37:43.953Z,1093.00
2023-04-27T08:38:36.638Z,1095.00
2023-04-27T08:39:36.415Z,1096.00
2023-04-27T08:40:36.367Z,1095.00
2023-04-27T08:41:36.399Z,1101.00
2023-04-27T08:42:36.382Z,1122.00
2023-04-27T08:43:36.378Z,1096.00
2023-04-27T08:44:36.384Z,1099.00
2023-04-27T08:45:36.362Z,1105.00
2023-04-27T08:46:36.366Z,1083.00
2023-04-27T08:47:43.201Z,1071.00
2023-04-27T08:48:37.345Z,1072.00
2023-04-27T08:49:36.360Z,1075.00
2023-04-27T08:50:36.348Z,1079.00
2023-04-27T08:51:36.319Z,1079.00
2023-04-27T08:52:36.302Z,1072.00
2023-04-27T08:53:36.651Z,1130.00
2023-04-27T08:54:36.291Z,1066.00
2023-04-27T08:55:36.306Z,1106.00
2023-04-27T08:56:36.305Z,1099.00
2023-04-27T08:57:36.260Z,1111.00
2023-04-27T08:58:36.302Z,1107.00
2023-04-27T08:59:36.342Z,1138.00
2023-04-27T09:00:36.364Z,1133.00
2023-04-27T09:01:36.394Z,1180.00
2023-04-27T09:02:36.611Z,1170.00
2023-04-27T09:03:36.578Z,1184.00
2023-04-27T09:04:36.565Z,1213.00
2023-04-27T09:05:36.524Z,1207.00
2023-04-27T09:06:36.620Z,1235.00
2023-04-27T09:07:36.548Z,1246.00
2023-04-27T09:08:36.601Z,1262.00
2023-04-27T09:09:36.609Z,1257.00
2023-04-27T09:10:36.617Z,1266.00
2023-04-27T09:11:36.627Z,1307.00
2023-04-27T09:12:36.652Z,1299.00
2023-04-27T09:13:36.724Z,1330.00
2023-04-27T09:14:36.689Z,1326.00
2023-04-27T09:15:36.669Z,1327.00
2023-04-27T09:16:36.762Z,1331.00
2023-04-27T09:17:36.777Z,1339.00
2023-04-27T09:18:36.740Z,1356.00
2023-04-27T09:19:36.750Z,1355.00
2023-04-27T09:20:36.755Z,1370.00
2023-04-27T09:21:36.722Z,1392.00
2023-04-27T09:22:36.769Z,1409.00
2023-04-27T09:23:36.802Z,1424.00
2023-04-27T09:24:36.765Z,1429.00
2023-04-27T09:25:36.815Z,1434.00
2023-04-27T09:26:36.818Z,1441.00
2023-04-27T09:27:36.814Z,1419.00
2023-04-27T09:28:37.184Z,1439.00
2023-04-27T09:29:36.934Z,1412.00
2023-04-27T09:30:36.794Z,1455.00
2023-04-27T09:31:36.880Z,1468.00
2023-04-27T09:32:36.830Z,1483.00
2023-04-27T09:33:36.876Z,1460.00
2023-04-27T09:34:36.827Z,1471.00
2023-04-27T09:35:36.810Z,1480.00
2023-04-27T09:36:36.829Z,1484.00
2023-04-27T09:37:36.838Z,1493.00
2023-04-27T09:38:36.809Z,1515.00
2023-04-27T09:39:37.175Z,1505.00
2023-04-27T09:40:36.783Z,1528.00
2023-04-27T09:41:36.782Z,1509.00
2023-04-27T09:42:36.778Z,1521.00
2023-04-27T09:43:36.796Z,1503.00
2023-04-27T09:44:37.191Z,1510.00
2023-04-27T09:45:36.789Z,1508.00
2023-04-27T09:46:36.798Z,1508.00
2023-04-27T09:47:36.846Z,1538.00
2023-04-27T09:48:36.813Z,1553.00
2023-04-27T09:49:37.157Z,1538.00
2023-04-27T09:50:38.092Z,1538.00
2023-04-27T09:51:36.788Z,1543.00
2023-04-27T09:52:36.786Z,1557.00
2023-04-27T09:53:36.762Z,1586.00
2023-04-27T09:54:36.804Z,1582.00
2023-04-27T09:55:36.792Z,1577.00
2023-04-27T09:56:36.756Z,1574.00
2023-04-27T09:57:36.753Z,1600.00
2023-04-27T09:58:36.762Z,1606.00
2023-04-27T09:59:37.255Z,1626.00
2023-04-27T10:00:36.778Z,1637.00
2023-04-27T10:01:37.523Z,1632.00
2023-04-27T10:02:46.387Z,1652.00
2023-04-27T10:03:37.875Z,1652.00
2023-04-27T10:04:37.072Z,1656.00
2023-04-27T10:05:36.814Z,1669.00
2023-04-27T10:06:36.820Z,1679.00
2023-04-27T10:07:36.821Z,1689.00
2023-04-27T10:08:36.809Z,1710.00
2023-04-27T10:09:36.792Z,1725.00
2023-04-27T10:10:36.788Z,1704.00
2023-04-27T10:11:36.797Z,1719.00
2023-04-27T10:12:36.961Z,1742.00
2023-04-27T10:13:36.912Z,1746.00
2023-04-27T10:14:36.973Z,1741.00
2023-04-27T10:15:37.051Z,1759.00
2023-04-27T10:16:37.113Z,1750.00
2023-04-27T10:17:37.282Z,1764.00
2023-04-27T10:18:37.218Z,1770.00
2023-04-27T10:19:37.254Z,1767.00
2023-04-27T10:20:37.297Z,1778.00
2023-04-27T10:21:37.339Z,1814.00
2023-04-27T10:22:37.349Z,1759.00
2023-04-27T10:23:37.399Z,1763.00
2023-04-27T10:24:37.515Z,1763.00
2023-04-27T10:25:37.532Z,1793.00
2023-04-27T10:26:39.387Z,1782.00
2023-04-27T10:27:37.651Z,1774.00
2023-04-27T10:28:37.701Z,1785.00
2023-04-27T10:29:37.792Z,1800.00
2023-04-27T10:30:37.870Z,1799.00
2023-04-27T10:31:37.872Z,1792.00
2023-04-27T10:32:38.098Z,1797.00
2023-04-27T10:33:38.028Z,1818.00
2023-04-27T10:34:38.177Z,1815.00
2023-04-27T10:35:38.152Z,1808.00
2023-04-27T10:36:38.207Z,1792.00
2023-04-27T10:37:38.242Z,1790.00
2023-04-27T10:38:38.309Z,1791.00
2023-04-27T10:39:47.624Z,1788.00
2023-04-27T10:40:39.357Z,1790.00
2023-04-27T10:41:38.365Z,1785.00
2023-04-27T10:42:38.371Z,1772.00
2023-04-27T10:43:38.343Z,1781.00
2023-04-27T10:44:38.690Z,1772.00
2023-04-27T10:45:38.329Z,1731.00
2023-04-27T10:46:38.345Z,1655.00
2023-04-27T10:47:38.423Z,1671.00
2023-04-27T10:48:38.323Z,1626.00
2023-04-27T10:49:38.304Z,1595.00
2023-04-27T10:50:38.299Z,1593.00
2023-04-27T10:51:38.280Z,1571.00
2023-04-27T10:52:38.294Z,1552.00
2023-04-27T10:53:38.308Z,1481.00
2023-04-27T10:54:38.339Z,1478.00
2023-04-27T10:55:38.281Z,1459.00
2023-04-27T10:56:38.268Z,1426.00
2023-04-27T10:57:38.262Z,1357.00
2023-04-27T10:59:38.317Z,1362.00
2023-04-27T11:00:38.284Z,1377.00
2023-04-27T11:01:38.328Z,1344.00
2023-04-27T11:02:38.315Z,1145.00
2023-04-27T11:03:38.388Z,1138.00
2023-04-27T11:04:38.412Z,1238.00
2023-04-27T11:05:38.288Z,1111.00
2023-04-27T11:06:38.254Z,1149.00
2023-04-27T11:07:38.242Z,1173.00
2023-04-27T11:08:38.244Z,1132.00
2023-04-27T11:09:38.247Z,1105.00
2023-04-27T11:10:38.212Z,1094.00
2023-04-27T11:11:38.204Z,1091.00
2023-04-27T11:12:38.251Z,1050.00
2023-04-27T11:13:38.218Z,1042.00
2023-04-27T11:14:38.177Z,1036.00
2023-04-27T11:15:38.226Z,1019.00
2023-04-27T11:16:38.263Z,1019.00
2023-04-27T11:17:38.204Z,1011.00
2023-04-27T11:18:38.131Z,1009.00
2023-04-27T11:19:38.183Z,1028.00
2023-04-27T11:20:38.139Z,1009.00
2023-04-27T11:21:38.135Z,1005.00
2023-04-27T11:22:38.137Z,996.00
2023-04-27T11:23:38.141Z,1006.00
2023-04-27T11:24:38.104Z,994.00
2023-04-27T11:25:38.111Z,994.00
2023-04-27T11:26:38.120Z,1012.00
2023-04-27T11:27:38.109Z,1001.00
2023-04-27T11:28:38.089Z,1003.00
2023-04-27T11:29:38.214Z,991.00
2023-04-27T11:30:38.083Z,1006.00
2023-04-27T11:31:38.165Z,987.00
2023-04-27T11:32:38.099Z,977.00
2023-04-27T11:33:38.066Z,977.00
2023-04-27T11:34:38.232Z,955.00
2023-04-27T11:35:38.040Z,972.00
2023-04-27T11:36:38.037Z,985.00
2023-04-27T11:37:38.012Z,992.00
2023-04-27T11:38:38.095Z,975.00
2023-04-27T11:39:38.014Z,977.00
2023-04-27T11:40:38.003Z,965.00
2023-04-27T11:41:38.027Z,959.00
2023-04-27T11:42:37.998Z,967.00
2023-04-27T11:43:38.005Z,976.00
2023-04-27T11:44:37.985Z,968.00
2023-04-27T11:45:37.986Z,959.00
2023-04-27T11:46:38.269Z,949.00
2023-04-27T11:47:38.009Z,973.00
2023-04-27T11:48:37.955Z,951.00
2023-04-27T11:49:37.952Z,956.00
2023-04-27T11:50:37.970Z,961.00
2023-04-27T11:51:38.002Z,956.00
2023-04-27T11:52:37.939Z,979.00
2023-04-27T11:53:37.926Z,978.00
2023-04-27T11:54:37.934Z,965.00
2023-04-27T11:55:37.909Z,975.00
2023-04-27T11:56:37.927Z,966.00
2023-04-27T11:57:37.926Z,957.00
2023-04-27T11:58:37.972Z,967.00
2023-04-27T11:59:37.984Z,972.00
2023-04-27T12:00:38.053Z,951.00
2023-04-27T12:01:38.629Z,970.00
2023-04-27T12:02:38.203Z,936.00
2023-04-27T12:03:38.491Z,955.00
2023-04-27T12:04:38.787Z,938.00
2023-04-27T12:05:38.291Z,944.00
2023-04-27T12:06:38.296Z,943.00
2023-04-27T12:07:38.322Z,978.00
2023-04-27T12:08:38.322Z,999.00
2023-04-27T12:09:38.336Z,994.00
2023-04-27T12:10:38.381Z,967.00
2023-04-27T12:11:38.417Z,975.00
2023-04-27T12:12:38.462Z,989.00
2023-04-27T12:13:38.484Z,964.00
2023-04-27T12:14:38.550Z,969.00
2023-04-27T12:15:38.572Z,971.00
2023-04-27T12:16:38.644Z,966.00
2023-04-27T12:17:38.698Z,965.00
2023-04-27T12:18:38.664Z,971.00
2023-04-27T12:19:38.741Z,948.00